Normed Antwerpen — V2DG9 — position and weather

sailwx.info

Track history (hours):
 
Tides and Currents Weather Stations Pressure Air Temp Water Temp Dewpoint Dewpoint Depression Visibility Wind Speed Wind Dir Waves Ship Positions

Normed Antwerpen

Last reported at 2017-Oct-17 07:09 UTC. Time now 2017-Oct-17 09:53 UTC.
Position N 36°25' E 014°37'.

Length 130 m; draft 6.2 m.

Type: Ship. MMSI: 305210993.

Date/timePositionNaut miles runAvg speedWind from/ knotsBaromVisibWave heightAir tempDewpointWater temp
2017-Oct-17 07:09N 36°25' E 014°37'212.7
2017-Oct-17 07:00N 36°25' E 014°34'612.8
2017-Oct-17 06:30N 36°27' E 014°27'713.0
2017-Oct-17 05:59N 36°29' E 014°19'713.0
2017-Oct-17 05:28N 36°32' E 014°11'612.5
2017-Oct-17 04:58N 36°34' E 014°04'612.3
2017-Oct-17 04:30N 36°36' E 013°57'612.5
2017-Oct-17 03:59N 36°38' E 013°50'612.5
2017-Oct-17 03:30N 36°40' E 013°42'612.6
2017-Oct-17 03:00N 36°42' E 013°35'612.6
2017-Oct-17 02:30N 36°44' E 013°28'612.5
2017-Oct-17 02:00N 36°46' E 013°20'612.4
2017-Oct-17 01:30N 36°48' E 013°13'612.2
2017-Oct-17 01:01N 36°50' E 013°06'612.1
2017-Oct-17 00:30N 36°51' E 012°58'712.2
2017-Oct-16 23:58N 36°54' E 012°51'612.4
2017-Oct-16 23:30N 36°56' E 012°44'612.3
2017-Oct-16 23:00N 36°58' E 012°37'8212.2
2017-Oct-16 16:19N 37°25' E 010°60'7712.2
2017-Oct-16 10:03N 37°36' E 009°24'312.3
2017-Oct-16 09:50N 37°37' E 009°21'35411.9
2017-Oct-15 04:01N 36°58' E 001°58'112.4
2017-Oct-15 03:56N 36°58' E 001°57'712.2
2017-Oct-15 03:20N 36°57' E 001°48'10511.8
2017-Oct-14 18:29N 36°38' W 000°21'612.1
2017-Oct-14 18:00N 36°37' W 000°28'611.9
2017-Oct-14 17:30N 36°36' W 000°35'612.2
2017-Oct-14 17:00N 36°35' W 000°43'612.3
2017-Oct-14 16:30N 36°34' W 000°51'612.2
2017-Oct-14 16:00N 36°33' W 000°58'612.2
2017-Oct-14 15:30N 36°32' W 001°05'712.1
2017-Oct-14 14:58N 36°31' W 001°13'612.2
2017-Oct-14 14:30N 36°30' W 001°20'18712.5
2017-Oct-13 23:37N 36°02' W 005°09'213.0
2017-Oct-13 23:28N 36°01' W 005°12'613.1
2017-Oct-13 23:01N 35°60' W 005°19'612.9
2017-Oct-13 22:30N 35°58' W 005°26'1411.4
2017-Oct-13 21:16N 35°55' W 005°43'610.8
2017-Oct-13 20:45N 35°54' W 005°50'11711.6
2017-Oct-13 10:38N 36°19' W 008°12'211.8
2017-Oct-13 10:30N 36°20' W 008°14'611.7
2017-Oct-13 10:00N 36°21' W 008°21'611.5
2017-Oct-13 09:30N 36°23' W 008°28'611.7
2017-Oct-13 09:00N 36°24' W 008°34'612.1
2017-Oct-13 08:30N 36°25' W 008°42'611.3
2017-Oct-13 08:00N 36°27' W 008°49'611.6
2017-Oct-13 07:30N 36°29' W 008°55'612.3
2017-Oct-13 07:00N 36°31' W 009°03'612.3
2017-Oct-13 06:30N 36°32' W 009°10'611.8
2017-Oct-13 06:00N 36°34' W 009°17'611.4
2017-Oct-13 05:30N 36°38' W 009°23'812.2
2017-Oct-13 04:48N 36°44' W 009°30'412.3
2017-Oct-13 04:29N 36°47' W 009°33'712.4
2017-Oct-13 03:54N 36°54' W 009°36'2312.2
2017-Oct-13 01:58N 37°17' W 009°41'911.7
2017-Oct-13 01:10N 37°26' W 009°44'1411.8
2017-Oct-13 00:00N 37°40' W 009°48'611.9
2017-Oct-12 23:30N 37°45' W 009°49'1512.0
2017-Oct-12 22:18N 37°59' W 009°54'412.5
2017-Oct-12 22:00N 38°03' W 009°55'612.1
2017-Oct-12 21:30N 38°09' W 009°56'811.7
2017-Oct-12 20:52N 38°16' W 009°59'811.6
2017-Oct-12 20:12N 38°24' W 010°01'211.7
2017-Oct-12 20:00N 38°26' W 010°01'611.8
2017-Oct-12 19:30N 38°32' W 010°03'612.1
2017-Oct-12 19:00N 38°38' W 010°05'612.5
2017-Oct-12 18:29N 38°44' W 010°06'612.4
2017-Oct-12 18:00N 38°50' W 010°06'612.2
2017-Oct-12 17:30N 38°56' W 010°06'611.6
2017-Oct-12 17:00N 39°02' W 010°06'611.4
2017-Oct-12 16:30N 39°08' W 010°06'612.0
2017-Oct-12 16:00N 39°14' W 010°06'612.0
2017-Oct-12 15:30N 39°20' W 010°06'611.9
2017-Oct-12 15:00N 39°25' W 010°06'612.0
2017-Oct-12 14:30N 39°31' W 010°06'4011.7
2017-Oct-12 11:05N 40°12' W 010°06'211.9
2017-Oct-12 10:55N 40°14' W 010°06'512.5
2017-Oct-12 10:30N 40°19' W 010°06'56511.6
2017-Oct-10 09:38N 49°05' W 005°18'2910.9
2017-Oct-10 07:00N 49°19' W 004°40'2311.9
2017-Oct-10 05:04N 49°31' W 004°10'713.1
2017-Oct-10 04:30N 49°34' W 003°60'813.7
2017-Oct-10 03:55N 49°38' W 003°49'614.2
2017-Oct-10 03:29N 49°41' W 003°41'714.7
2017-Oct-10 03:00N 49°45' W 003°31'714.7
2017-Oct-10 02:30N 49°49' W 003°21'714.6
2017-Oct-10 02:00N 49°52' W 003°11'714.1
2017-Oct-10 01:30N 49°56' W 003°02'713.4
2017-Oct-10 00:59N 49°59' W 002°52'712.9
2017-Oct-10 00:24N 50°01' W 002°41'9112.2
2017-Oct-09 16:56N 50°26' W 000°24'715.0
2017-Oct-09 16:30N 50°28' W 000°14'714.5
2017-Oct-09 16:01N 50°29' W 000°03'714.1
2017-Oct-09 15:30N 50°32' E 000°07'714.0
2017-Oct-09 15:00N 50°34' E 000°18'713.7
2017-Oct-09 14:30N 50°36' E 000°28'612.6
2017-Oct-09 14:00N 50°39' E 000°36'612.4
2017-Oct-09 13:30N 50°43' E 000°44'612.1
2017-Oct-09 13:00N 50°46' E 000°52'611.9
2017-Oct-09 12:30N 50°50' E 000°59'612.0
2017-Oct-09 11:59N 50°53' E 001°08'612.4
2017-Oct-09 11:30N 50°58' E 001°14'713.7
2017-Oct-09 11:00N 51°02' E 001°22'815.8
2017-Oct-09 10:30N 51°07' E 001°32'816.3
2017-Oct-09 10:01N 51°12' E 001°42'815.5
2017-Oct-09 09:30N 51°19' E 001°49'714.9
2017-Oct-09 09:00N 51°25' E 001°54'713.9
2017-Oct-09 08:31N 51°31' E 002°02'713.4
2017-Oct-09 08:00N 51°35' E 002°09'713.7
2017-Oct-09 07:30N 51°40' E 002°17'612.1
2017-Oct-09 07:00N 51°45' E 002°23'9712.1
2017-Oct-08 22:56N 53°00' E 004°04'4612.2
2017-Oct-08 19:10N 53°34' E 004°56'211.3
2017-Oct-08 19:00N 53°35' E 004°58'510.7
2017-Oct-08 18:30N 53°34' E 005°08'10010.4
2017-Oct-08 08:54N 53°52' E 007°54'4 9.7
2017-Oct-08 08:30N 53°51' E 008°01'611.2
2017-Oct-08 08:00N 53°48' E 008°08'612.8
2017-Oct-08 07:30N 53°44' E 008°16'714.4
2017-Oct-08 07:00N 53°39' E 008°25'613.1
2017-Oct-08 06:31N 53°34' E 008°33'4 8.9
2017-Oct-08 06:00N 53°30' E 008°30'714.1
2017-Oct-08 05:30N 53°23' E 008°30'612.5
2017-Oct-08 05:00N 53°16' E 008°29'611.7
2017-Oct-08 04:30N 53°11' E 008°33'5 9.8
2017-Oct-08 04:00N 53°08' E 008°39'4 7.4
2017-Oct-08 03:30N 53°06' E 008°44'0 0.0
2017-Oct-08 03:00N 53°06' E 008°44'0 0.0
2017-Oct-08 02:30N 53°06' E 008°44'0 0.0
2017-Oct-08 01:59N 53°06' E 008°44'0 0.0
2017-Oct-08 01:29N 53°06' E 008°44'0 0.0
2017-Oct-08 00:59N 53°06' E 008°44'0 0.0
2017-Oct-08 00:29N 53°06' E 008°44'0 0.0
2017-Oct-07 23:58N 53°06' E 008°44'0 0.0
2017-Oct-07 23:28N 53°06' E 008°44'0 0.0
2017-Oct-07 22:58N 53°06' E 008°44'0 0.0
2017-Oct-07 22:28N 53°06' E 008°44'0 0.0
2017-Oct-07 21:58N 53°06' E 008°44'0 0.0
2017-Oct-07 21:30N 53°06' E 008°44'0 0.0
2017-Oct-07 21:00N 53°06' E 008°44'0 0.0
2017-Oct-07 20:30N 53°06' E 008°44'0 0.0
2017-Oct-07 20:00N 53°06' E 008°44'0 0.0
2017-Oct-07 19:30N 53°06' E 008°44'0 0.0
2017-Oct-07 18:59N 53°06' E 008°44'0 0.0
2017-Oct-07 18:29N 53°06' E 008°44'0 0.0
2017-Oct-07 17:59N 53°06' E 008°44'0 0.0
2017-Oct-07 17:29N 53°06' E 008°44'0 0.0
2017-Oct-07 16:58N 53°06' E 008°44'0 0.0
2017-Oct-07 16:28N 53°06' E 008°44'0 0.0
2017-Oct-07 15:58N 53°06' E 008°44'0 0.0
2017-Oct-07 15:25N 53°06' E 008°44'0 0.0
2017-Oct-07 14:58N 53°06' E 008°44'0 0.0
2017-Oct-07 14:30N 53°06' E 008°44'0 0.0
2017-Oct-07 14:00N 53°06' E 008°44'0 0.0
2017-Oct-07 13:30N 53°06' E 008°44'0 0.0
2017-Oct-07 13:00N 53°06' E 008°44'0 0.0
2017-Oct-07 12:30N 53°06' E 008°44'0 0.0
2017-Oct-07 11:59N 53°06' E 008°44'0 0.0
2017-Oct-07 11:29N 53°06' E 008°44'0 0.0
2017-Oct-07 10:59N 53°06' E 008°44'0 0.0
2017-Oct-07 10:29N 53°06' E 008°44'0 0.0
2017-Oct-07 09:59N 53°06' E 008°44'0 0.0
2017-Oct-07 09:28N 53°06' E 008°44'0 0.0
2017-Oct-07 08:58N 53°06' E 008°44'0 0.0
2017-Oct-07 08:28N 53°06' E 008°44'0 0.0
2017-Oct-07 07:58N 53°06' E 008°44'0 0.0
2017-Oct-07 07:30N 53°06' E 008°44'  
Track history (hours):
 
Tides and Currents Weather Stations Pressure Air Temp Water Temp Dewpoint Dewpoint Depression Visibility Wind Speed Wind Dir Waves Ship Positions

Normed Antwerpen

Last reported at 2017-Oct-17 07:09 UTC. Time now 2017-Oct-17 09:53 UTC.
Position N 36°25' E 014°37'.

Length 130 m; draft 6.2 m.

Type: Ship. MMSI: 305210993.

Date/timePositionNaut miles runAvg speedWind from/ knotsBaromVisibWave heightAir tempDewpointWater temp
2017-Oct-17 07:09N 36°25' E 014°37'212.7
2017-Oct-17 07:00N 36°25' E 014°34'612.8
2017-Oct-17 06:30N 36°27' E 014°27'713.0
2017-Oct-17 05:59N 36°29' E 014°19'713.0
2017-Oct-17 05:28N 36°32' E 014°11'612.5
2017-Oct-17 04:58N 36°34' E 014°04'612.3
2017-Oct-17 04:30N 36°36' E 013°57'612.5
2017-Oct-17 03:59N 36°38' E 013°50'612.5
2017-Oct-17 03:30N 36°40' E 013°42'612.6
2017-Oct-17 03:00N 36°42' E 013°35'612.6
2017-Oct-17 02:30N 36°44' E 013°28'612.5
2017-Oct-17 02:00N 36°46' E 013°20'612.4
2017-Oct-17 01:30N 36°48' E 013°13'612.2
2017-Oct-17 01:01N 36°50' E 013°06'612.1
2017-Oct-17 00:30N 36°51' E 012°58'712.2
2017-Oct-16 23:58N 36°54' E 012°51'612.4
2017-Oct-16 23:30N 36°56' E 012°44'612.3
2017-Oct-16 23:00N 36°58' E 012°37'8212.2
2017-Oct-16 16:19N 37°25' E 010°60'7712.2
2017-Oct-16 10:03N 37°36' E 009°24'312.3
2017-Oct-16 09:50N 37°37' E 009°21'35411.9
2017-Oct-15 04:01N 36°58' E 001°58'112.4
2017-Oct-15 03:56N 36°58' E 001°57'712.2
2017-Oct-15 03:20N 36°57' E 001°48'10511.8
2017-Oct-14 18:29N 36°38' W 000°21'612.1
2017-Oct-14 18:00N 36°37' W 000°28'611.9
2017-Oct-14 17:30N 36°36' W 000°35'612.2
2017-Oct-14 17:00N 36°35' W 000°43'612.3
2017-Oct-14 16:30N 36°34' W 000°51'612.2
2017-Oct-14 16:00N 36°33' W 000°58'612.2
2017-Oct-14 15:30N 36°32' W 001°05'712.1
2017-Oct-14 14:58N 36°31' W 001°13'612.2
2017-Oct-14 14:30N 36°30' W 001°20'18712.5
2017-Oct-13 23:37N 36°02' W 005°09'213.0
2017-Oct-13 23:28N 36°01' W 005°12'613.1
2017-Oct-13 23:01N 35°60' W 005°19'612.9
2017-Oct-13 22:30N 35°58' W 005°26'1411.4
2017-Oct-13 21:16N 35°55' W 005°43'610.8
2017-Oct-13 20:45N 35°54' W 005°50'11711.6
2017-Oct-13 10:38N 36°19' W 008°12'211.8
2017-Oct-13 10:30N 36°20' W 008°14'611.7
2017-Oct-13 10:00N 36°21' W 008°21'611.5
2017-Oct-13 09:30N 36°23' W 008°28'611.7
2017-Oct-13 09:00N 36°24' W 008°34'612.1
2017-Oct-13 08:30N 36°25' W 008°42'611.3
2017-Oct-13 08:00N 36°27' W 008°49'611.6
2017-Oct-13 07:30N 36°29' W 008°55'612.3
2017-Oct-13 07:00N 36°31' W 009°03'612.3
2017-Oct-13 06:30N 36°32' W 009°10'611.8
2017-Oct-13 06:00N 36°34' W 009°17'611.4
2017-Oct-13 05:30N 36°38' W 009°23'812.2
2017-Oct-13 04:48N 36°44' W 009°30'412.3
2017-Oct-13 04:29N 36°47' W 009°33'712.4
2017-Oct-13 03:54N 36°54' W 009°36'2312.2
2017-Oct-13 01:58N 37°17' W 009°41'911.7
2017-Oct-13 01:10N 37°26' W 009°44'1411.8
2017-Oct-13 00:00N 37°40' W 009°48'611.9
2017-Oct-12 23:30N 37°45' W 009°49'1512.0
2017-Oct-12 22:18N 37°59' W 009°54'412.5
2017-Oct-12 22:00N 38°03' W 009°55'612.1
2017-Oct-12 21:30N 38°09' W 009°56'811.7
2017-Oct-12 20:52N 38°16' W 009°59'811.6
2017-Oct-12 20:12N 38°24' W 010°01'211.7
2017-Oct-12 20:00N 38°26' W 010°01'611.8
2017-Oct-12 19:30N 38°32' W 010°03'612.1
2017-Oct-12 19:00N 38°38' W 010°05'612.5
2017-Oct-12 18:29N 38°44' W 010°06'612.4
2017-Oct-12 18:00N 38°50' W 010°06'612.2
2017-Oct-12 17:30N 38°56' W 010°06'611.6
2017-Oct-12 17:00N 39°02' W 010°06'611.4
2017-Oct-12 16:30N 39°08' W 010°06'612.0
2017-Oct-12 16:00N 39°14' W 010°06'612.0
2017-Oct-12 15:30N 39°20' W 010°06'611.9
2017-Oct-12 15:00N 39°25' W 010°06'612.0
2017-Oct-12 14:30N 39°31' W 010°06'4011.7
2017-Oct-12 11:05N 40°12' W 010°06'211.9
2017-Oct-12 10:55N 40°14' W 010°06'512.5
2017-Oct-12 10:30N 40°19' W 010°06'56511.6
2017-Oct-10 09:38N 49°05' W 005°18'2910.9
2017-Oct-10 07:00N 49°19' W 004°40'2311.9
2017-Oct-10 05:04N 49°31' W 004°10'713.1
2017-Oct-10 04:30N 49°34' W 003°60'813.7
2017-Oct-10 03:55N 49°38' W 003°49'614.2
2017-Oct-10 03:29N 49°41' W 003°41'714.7
2017-Oct-10 03:00N 49°45' W 003°31'714.7
2017-Oct-10 02:30N 49°49' W 003°21'714.6
2017-Oct-10 02:00N 49°52' W 003°11'714.1
2017-Oct-10 01:30N 49°56' W 003°02'713.4
2017-Oct-10 00:59N 49°59' W 002°52'712.9
2017-Oct-10 00:24N 50°01' W 002°41'9112.2
2017-Oct-09 16:56N 50°26' W 000°24'715.0
2017-Oct-09 16:30N 50°28' W 000°14'714.5
2017-Oct-09 16:01N 50°29' W 000°03'714.1
2017-Oct-09 15:30N 50°32' E 000°07'714.0
2017-Oct-09 15:00N 50°34' E 000°18'713.7
2017-Oct-09 14:30N 50°36' E 000°28'612.6
2017-Oct-09 14:00N 50°39' E 000°36'612.4
2017-Oct-09 13:30N 50°43' E 000°44'612.1
2017-Oct-09 13:00N 50°46' E 000°52'611.9
2017-Oct-09 12:30N 50°50' E 000°59'612.0
2017-Oct-09 11:59N 50°53' E 001°08'612.4
2017-Oct-09 11:30N 50°58' E 001°14'713.7
2017-Oct-09 11:00N 51°02' E 001°22'815.8
2017-Oct-09 10:30N 51°07' E 001°32'816.3
2017-Oct-09 10:01N 51°12' E 001°42'815.5
2017-Oct-09 09:30N 51°19' E 001°49'714.9
2017-Oct-09 09:00N 51°25' E 001°54'713.9
2017-Oct-09 08:31N 51°31' E 002°02'713.4
2017-Oct-09 08:00N 51°35' E 002°09'713.7
2017-Oct-09 07:30N 51°40' E 002°17'612.1
2017-Oct-09 07:00N 51°45' E 002°23'9712.1
2017-Oct-08 22:56N 53°00' E 004°04'4612.2
2017-Oct-08 19:10N 53°34' E 004°56'211.3
2017-Oct-08 19:00N 53°35' E 004°58'510.7
2017-Oct-08 18:30N 53°34' E 005°08'10010.4
2017-Oct-08 08:54N 53°52' E 007°54'4 9.7
2017-Oct-08 08:30N 53°51' E 008°01'611.2
2017-Oct-08 08:00N 53°48' E 008°08'612.8
2017-Oct-08 07:30N 53°44' E 008°16'714.4
2017-Oct-08 07:00N 53°39' E 008°25'613.1
2017-Oct-08 06:31N 53°34' E 008°33'4 8.9
2017-Oct-08 06:00N 53°30' E 008°30'714.1
2017-Oct-08 05:30N 53°23' E 008°30'612.5
2017-Oct-08 05:00N 53°16' E 008°29'611.7
2017-Oct-08 04:30N 53°11' E 008°33'5 9.8
2017-Oct-08 04:00N 53°08' E 008°39'4 7.4
2017-Oct-08 03:30N 53°06' E 008°44'0 0.0
2017-Oct-08 03:00N 53°06' E 008°44'0 0.0
2017-Oct-08 02:30N 53°06' E 008°44'0 0.0
2017-Oct-08 01:59N 53°06' E 008°44'0 0.0
2017-Oct-08 01:29N 53°06' E 008°44'0 0.0
2017-Oct-08 00:59N 53°06' E 008°44'0 0.0
2017-Oct-08 00:29N 53°06' E 008°44'0 0.0
2017-Oct-07 23:58N 53°06' E 008°44'0 0.0
2017-Oct-07 23:28N 53°06' E 008°44'0 0.0
2017-Oct-07 22:58N 53°06' E 008°44'0 0.0
2017-Oct-07 22:28N 53°06' E 008°44'0 0.0
2017-Oct-07 21:58N 53°06' E 008°44'0 0.0
2017-Oct-07 21:30N 53°06' E 008°44'0 0.0
2017-Oct-07 21:00N 53°06' E 008°44'0 0.0
2017-Oct-07 20:30N 53°06' E 008°44'0 0.0
2017-Oct-07 20:00N 53°06' E 008°44'0 0.0
2017-Oct-07 19:30N 53°06' E 008°44'0 0.0
2017-Oct-07 18:59N 53°06' E 008°44'0 0.0
2017-Oct-07 18:29N 53°06' E 008°44'0 0.0
2017-Oct-07 17:59N 53°06' E 008°44'0 0.0
2017-Oct-07 17:29N 53°06' E 008°44'0 0.0
2017-Oct-07 16:58N 53°06' E 008°44'0 0.0
2017-Oct-07 16:28N 53°06' E 008°44'0 0.0
2017-Oct-07 15:58N 53°06' E 008°44'0 0.0
2017-Oct-07 15:25N 53°06' E 008°44'0 0.0
2017-Oct-07 14:58N 53°06' E 008°44'0 0.0
2017-Oct-07 14:30N 53°06' E 008°44'0 0.0
2017-Oct-07 14:00N 53°06' E 008°44'0 0.0
2017-Oct-07 13:30N 53°06' E 008°44'0 0.0
2017-Oct-07 13:00N 53°06' E 008°44'0 0.0
2017-Oct-07 12:30N 53°06' E 008°44'0 0.0
2017-Oct-07 11:59N 53°06' E 008°44'0 0.0
2017-Oct-07 11:29N 53°06' E 008°44'0 0.0
2017-Oct-07 10:59N 53°06' E 008°44'0 0.0
2017-Oct-07 10:29N 53°06' E 008°44'0 0.0
2017-Oct-07 09:59N 53°06' E 008°44'0 0.0
2017-Oct-07 09:28N 53°06' E 008°44'0 0.0
2017-Oct-07 08:58N 53°06' E 008°44'0 0.0
2017-Oct-07 08:28N 53°06' E 008°44'0 0.0
2017-Oct-07 07:58N 53°06' E 008°44'0 0.0
2017-Oct-07 07:30N 53°06' E 008°44'  

Dump ship's entire track history